LFKB/BIA METAR and TAF weather

Enter ICAO airport designator
Station Type Date Time Source
LFKB METAR 2020/01/27 13:30 UTC NOAA

LFKB 271330Z AUTO 12007KT 9999 FEW023 SCT062 15/10 Q1019 NOSIG


Station Type Date Time Source
LFKB Decoded METAR 2020/01/27 13:30 UTC NOAA

Bastia, France (LFKB) 42-33N 009-29E 12M
Jan 27, 2020 - 08:30 AM EST / 2020.01.27 1330 UTC
Wind: from the ESE (120 degrees) at 8 MPH (7 KT):0
Visibility: greater than 7 mile(s):0
Sky conditions: partly cloudy
Temperature: 59 F (15 C)
Dew Point: 50 F (10 C)
Relative Humidity: 72%
Pressure (altimeter): 30.09 in. Hg (1019 hPa)
ob: LFKB 271330Z AUTO 12007KT 9999 FEW023 SCT062 15/10 Q1019 NOSIG
cycle: 13

Station Type Date Time Source
LFKB TAF 2020/01/27 09:21 UTC NOAA

TAF TAF LFKB 270800Z 2709/2809 22008KT 9999 FEW035 TX15/2712Z TN09/2709Z
TEMPO 2711/2716 15010KT

Example: see airport list